Time;durP1;ratioP1;P1;durP2;ratioP2;P2;SDS_P1;SDS_P2;PMS_P1;PMS_P2;Temp;Humidity;BMP_temperature;BMP_pressure;BME280_temperature;BME280_humidity;BME280_pressure;Samples;Min_cycle;Max_cycle;Signal;HPM_P1;HPM_P2
2023/10/01 00:00:44;;;;;;;16.75;11.57;;;15.40;99.90;;;;;;4940229;28;89622;-34
2023/10/01 00:03:10;;;;;;;13.18;10.88;;;15.30;99.90;;;;;;4938806;28;89688;-33
2023/10/01 00:05:36;;;;;;;23.20;13.30;;;15.30;99.90;;;;;;4938545;28;87597;-36
2023/10/01 00:08:02;;;;;;;20.33;13.85;;;15.30;99.90;;;;;;4938901;28;90008;-34
2023/10/01 00:10:28;;;;;;;12.98;10.43;;;15.30;99.90;;;;;;4939414;28;90024;-32
2023/10/01 00:12:54;;;;;;;17.83;12.10;;;15.30;99.90;;;;;;4939197;28;89708;-34
2023/10/01 00:15:24;;;;;;;14.23;11.55;;;15.30;99.90;;;;;;4939352;28;88706;-32
2023/10/01 00:17:50;;;;;;;20.38;13.45;;;15.20;99.90;;;;;;4939225;28;90132;-33
2023/10/01 00:20:20;;;;;;;15.98;12.00;;;15.30;99.90;;;;;;4938197;28;89870;-34
2023/10/01 00:22:50;;;;;;;19.90;12.05;;;15.20;99.90;;;;;;4937920;28;90407;-32
2023/10/01 00:25:17;;;;;;;16.88;12.27;;;15.20;99.90;;;;;;4939202;28;89916;-33
2023/10/01 00:27:43;;;;;;;17.30;12.05;;;15.20;99.90;;;;;;4939391;28;90091;-35
2023/10/01 00:30:10;;;;;;;15.02;10.70;;;15.10;99.90;;;;;;4938407;28;89638;-33
2023/10/01 00:32:37;;;;;;;19.77;12.93;;;15.00;99.90;;;;;;4938499;28;90544;-32
2023/10/01 00:35:03;;;;;;;15.38;12.30;;;15.00;99.90;;;;;;4939364;28;88029;-31
2023/10/01 00:37:29;;;;;;;17.60;11.55;;;15.00;99.90;;;;;;4938717;28;90158;-33
2023/10/01 00:39:56;;;;;;;23.98;12.15;;;15.00;99.90;;;;;;4936975;28;90995;-32
2023/10/01 00:42:23;;;;;;;14.33;12.13;;;14.90;99.90;;;;;;4938104;28;89624;-35
2023/10/01 00:44:49;;;;;;;15.27;12.02;;;15.00;99.90;;;;;;4938964;28;90100;-30
2023/10/01 00:47:16;;;;;;;20.20;12.02;;;14.90;99.90;;;;;;4938224;28;90300;-33
2023/10/01 00:49:48;;;;;;;19.13;12.82;;;15.00;99.90;;;;;;4939391;28;89044;-33
2023/10/01 00:52:15;;;;;;;14.43;10.35;;;15.00;99.90;;;;;;4938244;28;89577;-34
2023/10/01 00:54:41;;;;;;;18.83;12.13;;;15.00;99.90;;;;;;4939108;28;88527;-32
2023/10/01 00:57:06;;;;;;;14.18;11.25;;;15.00;99.90;;;;;;4938157;28;90246;-33
2023/10/01 00:59:33;;;;;;;19.17;12.85;;;14.90;99.90;;;;;;4938730;28;90037;-33
2023/10/01 01:02:07;;;;;;;16.63;13.25;;;14.90;99.90;;;;;;4953231;28;90151;-32
2023/10/01 01:04:42;;;;;;;18.45;12.70;;;14.90;99.90;;;;;;4938773;28;88985;-34
2023/10/01 01:07:16;;;;;;;22.90;15.15;;;14.90;99.90;;;;;;4926633;28;90383;-32
2023/10/01 01:09:42;;;;;;;14.23;12.48;;;14.90;99.90;;;;;;4937621;28;90800;-32
2023/10/01 01:12:08;;;;;;;17.98;14.38;;;14.90;99.90;;;;;;4938664;28;90110;-33
2023/10/01 01:14:35;;;;;;;13.82;12.48;;;14.90;99.90;;;;;;4938608;28;88763;-35
2023/10/01 01:17:01;;;;;;;18.70;13.52;;;14.80;99.90;;;;;;4939825;28;89877;-32
2023/10/01 01:19:27;;;;;;;17.58;12.32;;;14.80;99.90;;;;;;4942126;28;89359;-34
2023/10/01 01:21:53;;;;;;;17.90;13.68;;;14.80;99.90;;;;;;4942125;28;89936;-33
2023/10/01 01:24:22;;;;;;;15.38;13.13;;;14.80;99.90;;;;;;4941706;28;89645;-33
2023/10/01 01:26:51;;;;;;;17.10;13.90;;;14.70;99.90;;;;;;4942445;28;89993;-33
2023/10/01 01:29:29;;;;;;;19.70;12.55;;;14.80;99.90;;;;;;4941751;28;89777;-34
2023/10/01 01:32:19;;;;;;;14.37;12.77;;;14.80;99.90;;;;;;4941080;28;90188;-31
2023/10/01 01:34:46;;;;;;;17.98;14.18;;;14.80;99.90;;;;;;4941135;28;89247;-32
2023/10/01 01:37:36;;;;;;;15.52;13.93;;;14.80;99.90;;;;;;4941286;28;89899;-31
2023/10/01 01:40:25;;;;;;;21.90;14.30;;;14.80;99.90;;;;;;4941032;28;91263;-34
2023/10/01 01:42:49;;;;;;;17.77;13.38;;;14.80;99.90;;;;;;4941717;28;89762;-32
2023/10/01 01:45:25;;;;;;;22.80;13.55;;;14.70;99.90;;;;;;4940467;28;88518;-32
2023/10/01 01:47:51;;;;;;;15.75;12.90;;;14.80;99.90;;;;;;4942274;28;90204;-33
2023/10/01 01:50:18;;;;;;;22.60;14.48;;;14.80;99.90;;;;;;4940650;28;90827;-35
2023/10/01 01:52:58;;;;;;;20.08;13.55;;;14.80;99.90;;;;;;4941742;28;89285;-32
2023/10/01 01:55:27;;;;;;;17.05;13.95;;;14.80;99.90;;;;;;4941576;28;90159;-30
2023/10/01 01:58:10;;;;;;;19.38;13.73;;;14.80;99.90;;;;;;4941570;28;90375;-34
2023/10/01 02:00:47;;;;;;;15.98;12.73;;;14.80;99.90;;;;;;4928709;28;90287;-32
2023/10/01 02:03:14;;;;;;;18.02;12.95;;;14.80;99.90;;;;;;4941291;28;89857;-33
2023/10/01 02:05:47;;;;;;;19.77;14.77;;;14.80;99.90;;;;;;4941227;28;88457;-31
2023/10/01 02:08:23;;;;;;;20.40;14.32;;;14.80;99.90;;;;;;4940404;28;89281;-32
2023/10/01 02:10:54;;;;;;;15.38;13.60;;;14.80;99.90;;;;;;4940765;28;89438;-33
2023/10/01 02:13:21;;;;;;;19.90;15.07;;;14.80;99.90;;;;;;4940925;28;90407;-31
2023/10/01 02:15:47;;;;;;;18.70;14.45;;;14.80;99.90;;;;;;4941224;28;90169;-34
2023/10/01 02:18:16;;;;;;;24.65;15.20;;;14.80;99.90;;;;;;4940218;28;90357;-32
2023/10/01 02:20:51;;;;;;;15.77;13.98;;;14.80;99.90;;;;;;4941309;28;90829;-32
2023/10/01 02:23:25;;;;;;;18.65;13.32;;;14.80;99.90;;;;;;4941054;28;89530;-32
2023/10/01 02:25:53;;;;;;;17.95;14.85;;;14.80;99.90;;;;;;4941228;28;90478;-34
2023/10/01 02:28:18;;;;;;;19.70;14.40;;;14.80;99.90;;;;;;4940022;28;90634;-32
2023/10/01 02:30:44;;;;;;;20.65;14.90;;;14.80;99.90;;;;;;4940178;28;89629;-32
2023/10/01 02:33:17;;;;;;;15.90;13.63;;;14.80;99.90;;;;;;4940147;28;89780;-31
2023/10/01 02:35:49;;;;;;;21.48;13.60;;;14.80;99.90;;;;;;4940873;28;88990;-34
2023/10/01 02:41:02;;;;;;;19.70;15.38;;;14.80;99.90;;;;;;4940052;28;89688;-34
2023/10/01 02:43:35;;;;;;;19.67;14.60;;;14.80;99.90;;;;;;4941246;28;89763;-33
2023/10/01 02:46:12;;;;;;;21.60;15.13;;;14.80;99.90;;;;;;4927920;28;88811;-34
2023/10/01 02:48:42;;;;;;;20.35;16.38;;;14.80;99.90;;;;;;4940265;28;90241;-32
2023/10/01 02:51:14;;;;;;;24.63;15.88;;;14.80;99.90;;;;;;4940275;28;90296;-31
2023/10/01 02:54:05;;;;;;;18.90;15.57;;;14.80;99.90;;;;;;4940198;28;91689;-30
2023/10/01 02:56:37;;;;;;;18.52;15.55;;;14.80;99.90;;;;;;4940878;28;88954;-32
2023/10/01 02:59:09;;;;;;;23.55;16.98;;;14.80;99.90;;;;;;4940449;28;89512;-30
2023/10/01 03:01:38;;;;;;;22.02;15.73;;;14.80;99.90;;;;;;4939027;28;89799;-32
2023/10/01 03:04:10;;;;;;;23.90;14.57;;;14.80;99.90;;;;;;4955172;28;90519;-34
2023/10/01 03:06:47;;;;;;;22.85;17.20;;;14.80;99.90;;;;;;4938789;28;89501;-34
2023/10/01 03:09:22;;;;;;;23.15;15.90;;;14.80;99.90;;;;;;4940406;28;90237;-31
2023/10/01 03:11:53;;;;;;;18.98;14.95;;;14.80;99.90;;;;;;4939924;28;89605;-33
2023/10/01 03:14:25;;;;;;;22.73;15.55;;;14.80;99.90;;;;;;4939896;28;89173;-32
2023/10/01 03:16:54;;;;;;;23.20;16.50;;;14.80;99.90;;;;;;4927395;28;88814;-33
2023/10/01 03:19:27;;;;;;;23.85;15.60;;;14.80;99.90;;;;;;4939809;28;90768;-35
2023/10/01 03:24:39;;;;;;;22.63;16.40;;;14.80;99.90;;;;;;4939618;28;90068;-32
2023/10/01 03:27:20;;;;;;;26.70;17.05;;;14.80;99.90;;;;;;4939373;28;89572;-33
2023/10/01 03:29:49;;;;;;;21.17;15.98;;;14.80;99.90;;;;;;4939964;28;88984;-33
2023/10/01 03:32:28;;;;;;;23.33;15.25;;;14.70;99.90;;;;;;4921268;28;89417;-33
2023/10/01 03:34:54;;;;;;;19.67;16.45;;;14.80;99.90;;;;;;4939368;28;89586;-35
2023/10/01 03:37:22;;;;;;;21.42;16.60;;;14.80;99.90;;;;;;4939814;28;88825;-36
2023/10/01 03:39:52;;;;;;;21.40;15.27;;;14.80;99.90;;;;;;4939221;28;90220;-32
2023/10/01 03:42:18;;;;;;;25.85;16.25;;;14.80;99.90;;;;;;4938179;28;90818;-33
2023/10/01 03:47:29;;;;;;;21.33;15.20;;;14.80;99.90;;;;;;4939323;28;88327;-34
2023/10/01 03:49:57;;;;;;;25.08;17.02;;;14.70;99.90;;;;;;4939699;28;90513;-32
2023/10/01 03:52:29;;;;;;;22.92;15.80;;;14.80;99.90;;;;;;4938991;28;89269;-33
2023/10/01 03:57:25;;;;;;;25.20;17.75;;;14.80;99.90;;;;;;4939206;28;89112;-30
2023/10/01 03:59:54;;;;;;;22.10;15.63;;;14.80;99.90;;;;;;4939423;28;89084;-32
2023/10/01 04:02:28;;;;;;;22.90;17.23;;;14.80;99.90;;;;;;4939796;28;88198;-32
2023/10/01 04:04:57;;;;;;;18.40;14.23;;;14.80;99.90;;;;;;4939210;28;89581;-34
2023/10/01 04:07:40;;;;;;;23.98;15.73;;;14.80;99.90;;;;;;4939285;28;88976;-32
2023/10/01 04:10:13;;;;;;;24.33;15.50;;;14.80;99.90;;;;;;4939137;28;89892;-32
2023/10/01 04:12:44;;;;;;;20.48;15.60;;;14.80;99.90;;;;;;4939061;28;90743;-34
2023/10/01 04:15:15;;;;;;;21.08;14.20;;;14.80;99.90;;;;;;4927165;28;91138;-33
2023/10/01 04:18:09;;;;;;;19.30;15.02;;;14.80;99.90;;;;;;4939844;28;88938;-33
2023/10/01 04:20:31;;;;;;;18.05;15.32;;;14.80;99.90;;;;;;4938914;28;91076;-33
2023/10/01 04:23:04;;;;;;;22.55;15.55;;;14.80;99.90;;;;;;4939347;28;88114;-32
2023/10/01 04:25:36;;;;;;;18.48;13.43;;;14.80;99.90;;;;;;4938950;28;89281;-35
2023/10/01 04:28:05;;;;;;;18.52;15.88;;;14.80;99.90;;;;;;4936687;28;87996;-34
2023/10/01 04:30:34;;;;;;;20.08;15.38;;;14.80;99.90;;;;;;4938875;28;90315;-30
2023/10/01 04:33:16;;;;;;;19.33;15.07;;;14.80;99.90;;;;;;4938002;28;89984;-32
2023/10/01 04:35:51;;;;;;;18.45;13.73;;;14.80;99.90;;;;;;4937101;28;91881;-33
2023/10/01 04:38:28;;;;;;;17.77;13.70;;;14.80;99.90;;;;;;4939571;28;89407;-33
2023/10/01 04:40:55;;;;;;;19.10;14.17;;;14.80;99.90;;;;;;4938347;28;90772;-32
2023/10/01 04:43:21;;;;;;;17.08;13.63;;;14.80;99.90;;;;;;4939234;28;89438;-32
2023/10/01 04:45:52;;;;;;;21.95;15.70;;;14.80;99.90;;;;;;4936863;28;88945;-34
2023/10/01 04:48:25;;;;;;;20.02;14.82;;;14.80;99.90;;;;;;4938618;28;88983;-34
2023/10/01 04:50:53;;;;;;;17.05;13.00;;;14.80;99.90;;;;;;4939801;28;91270;-34
2023/10/01 04:53:23;;;;;;;22.13;15.70;;;14.80;99.90;;;;;;4935787;28;90525;-34
2023/10/01 04:56:05;;;;;;;19.00;15.10;;;14.80;99.90;;;;;;4942178;28;89461;-31
2023/10/01 04:58:38;;;;;;;19.23;14.07;;;14.70;99.90;;;;;;4941478;28;90144;-31
2023/10/01 05:01:12;;;;;;;22.75;15.20;;;14.80;99.90;;;;;;4942096;28;90302;-34
2023/10/01 05:03:39;;;;;;;17.73;13.88;;;14.80;99.90;;;;;;4942387;28;89359;-34
2023/10/01 05:06:13;;;;;;;18.95;13.65;;;14.70;99.90;;;;;;4942105;28;89498;-34
2023/10/01 05:08:42;;;;;;;14.80;12.85;;;14.70;99.90;;;;;;4939094;28;89316;-33
2023/10/01 05:11:13;;;;;;;20.60;14.68;;;14.80;99.90;;;;;;4935870;28;90200;-33
2023/10/01 05:13:41;;;;;;;16.02;12.55;;;14.80;99.90;;;;;;4942678;28;89351;-31
2023/10/01 05:16:07;;;;;;;;;;;14.80;99.90;;;;;;4942294;28;90203;-31
2023/10/01 05:18:34;;;;;;;17.70;12.95;;;14.80;99.90;;;;;;4944766;28;89018;-32
2023/10/01 05:21:04;;;;;;;18.05;13.27;;;14.80;99.90;;;;;;4941464;28;88958;-34
2023/10/01 05:23:30;;;;;;;17.38;13.75;;;14.80;99.90;;;;;;4941334;28;90181;-30
2023/10/01 05:25:56;;;;;;;17.77;13.32;;;14.80;99.90;;;;;;4942433;28;90643;-30
2023/10/01 05:28:31;;;;;;;15.50;12.18;;;14.80;99.90;;;;;;4942183;28;90056;-34
2023/10/01 05:31:15;;;;;;;14.63;11.90;;;14.80;99.90;;;;;;4942232;28;90660;-30
2023/10/01 05:33:45;;;;;;;17.83;13.05;;;14.80;99.90;;;;;;4941560;28;89715;-34
2023/10/01 05:36:13;;;;;;;21.25;12.50;;;14.80;99.90;;;;;;4941665;28;89581;-33
2023/10/01 05:38:39;;;;;;;15.98;12.35;;;14.80;99.90;;;;;;4977294;22;89655;-34
2023/10/01 05:41:09;;;;;;;21.90;13.93;;;14.80;99.90;;;;;;4959175;28;90385;-33
2023/10/01 05:43:50;;;;;;;17.58;12.52;;;14.80;99.90;;;;;;4960623;28;89691;-36
2023/10/01 05:46:17;;;;;;;21.13;12.98;;;14.70;99.90;;;;;;4938949;28;90490;-36
2023/10/01 05:48:44;;;;;;;15.60;11.67;;;14.70;99.90;;;;;;4945660;28;90379;-34
2023/10/01 05:51:18;;;;;;;16.92;12.57;;;14.70;99.90;;;;;;4941171;28;89926;-35
2023/10/01 05:53:52;;;;;;;21.30;11.80;;;14.70;99.90;;;;;;4942125;28;91156;-33
2023/10/01 05:56:17;;;;;;;14.52;11.50;;;14.70;99.90;;;;;;4940289;28;89339;-35
2023/10/01 05:58:44;;;;;;;15.23;12.15;;;14.70;99.90;;;;;;4944222;28;89377;-35
2023/10/01 06:01:16;;;;;;;16.98;12.90;;;14.70;99.90;;;;;;4943573;28;89174;-33
2023/10/01 06:03:49;;;;;;;20.02;14.13;;;14.70;99.90;;;;;;4942649;28;89627;-33
2023/10/01 06:06:25;;;;;;;15.95;12.98;;;14.70;99.90;;;;;;4944762;28;89953;-35
2023/10/01 06:08:58;;;;;;;16.05;11.70;;;14.70;99.90;;;;;;4948311;28;88478;-33
2023/10/01 06:11:42;;;;;;;17.23;11.27;;;14.70;99.90;;;;;;4938232;28;89703;-35
2023/10/01 06:16:53;;;;;;;17.25;11.15;;;14.70;99.90;;;;;;4946384;28;89616;-34
2023/10/01 06:19:19;;;;;;;18.98;10.90;;;14.80;99.90;;;;;;4943208;28;88208;-32
2023/10/01 06:21:46;;;;;;;15.50;10.23;;;14.80;99.90;;;;;;4947380;28;90248;-35
2023/10/01 06:24:13;;;;;;;17.27;11.00;;;14.90;99.90;;;;;;4943646;28;89934;-32
2023/10/01 06:26:50;;;;;;;19.90;12.05;;;14.90;99.90;;;;;;4946651;28;89533;-34
2023/10/01 06:29:16;;;;;;;14.80;11.68;;;14.90;99.90;;;;;;4939429;28;90127;-35
2023/10/01 06:32:00;;;;;;;15.98;10.57;;;14.90;99.90;;;;;;4948902;28;90131;-34
2023/10/01 06:34:31;;;;;;;15.88;11.65;;;14.90;99.90;;;;;;4944109;28;89110;-32
2023/10/01 06:36:59;;;;;;;17.60;12.70;;;14.90;99.90;;;;;;4950410;28;88918;-33
2023/10/01 06:39:33;;;;;;;18.45;11.90;;;15.00;99.90;;;;;;4951137;28;88982;-32
2023/10/01 06:44:43;;;;;;;15.55;10.85;;;15.00;99.90;;;;;;4939597;28;90764;-34
2023/10/01 06:47:15;;;;;;;19.60;11.38;;;15.00;99.90;;;;;;4942497;28;89737;-32
2023/10/01 06:52:32;;;;;;;17.25;12.00;;;15.10;99.90;;;;;;4929682;28;90322;-35
2023/10/01 06:55:01;;;;;;;18.67;11.68;;;15.00;99.90;;;;;;4941519;28;90292;-35
2023/10/01 06:57:38;;;;;;;;;;;15.10;99.90;;;;;;4940302;28;89518;-34
2023/10/01 07:00:13;;;;;;;17.13;11.93;;;15.00;99.90;;;;;;4955918;28;89657;-35
2023/10/01 07:02:40;;;;;;;20.88;12.10;;;15.00;99.90;;;;;;4934017;28;90366;-34
2023/10/01 07:05:06;;;;;;;18.30;11.75;;;15.00;99.90;;;;;;4937043;28;90697;-35
2023/10/01 07:07:35;;;;;;;17.98;12.10;;;15.00;99.90;;;;;;4940011;28;91681;-34
2023/10/01 07:10:02;;;;;;;23.48;14.27;;;15.00;99.90;;;;;;4956008;28;89160;-34
2023/10/01 07:12:27;;;;;;;19.30;13.30;;;14.90;99.90;;;;;;4955939;28;89263;-32
2023/10/01 07:14:53;;;;;;;20.30;12.70;;;14.90;99.90;;;;;;4956476;28;90190;-33
2023/10/01 07:17:28;;;;;;;18.90;11.23;;;14.90;99.90;;;;;;4955901;28;89375;-32
2023/10/01 07:20:00;;;;;;;19.58;14.13;;;14.90;99.90;;;;;;4957105;28;88466;-33
2023/10/01 07:22:30;;;;;;;17.70;12.65;;;14.80;99.90;;;;;;4944589;28;89739;-34
2023/10/01 07:25:00;;;;;;;18.52;12.93;;;14.80;99.90;;;;;;4942404;28;90459;-36
2023/10/01 07:27:29;;;;;;;17.02;12.30;;;14.90;99.90;;;;;;4927883;28;89164;-35
2023/10/01 07:29:56;;;;;;;20.38;12.77;;;14.90;99.90;;;;;;4943141;28;90049;-35
2023/10/01 07:32:24;;;;;;;22.90;13.38;;;14.90;99.90;;;;;;4939125;28;89989;-35
2023/10/01 07:34:58;;;;;;;15.90;12.73;;;14.80;99.90;;;;;;4942993;28;88852;-35
2023/10/01 07:37:25;;;;;;;22.02;14.13;;;14.80;99.90;;;;;;4942760;28;88967;-34
2023/10/01 07:39:55;;;;;;;14.13;11.18;;;14.90;99.90;;;;;;4928533;28;89988;-34
2023/10/01 07:42:27;;;;;;;15.00;11.48;;;14.90;99.90;;;;;;4936536;28;90287;-36
2023/10/01 07:44:53;;;;;;;17.27;12.45;;;14.90;99.90;;;;;;4927568;28;89868;-33
2023/10/01 07:47:32;;;;;;;18.60;14.00;;;15.00;99.90;;;;;;4953162;28;89420;-34
2023/10/01 07:49:58;;;;;;;17.00;13.07;;;15.00;99.90;;;;;;4935970;28;89494;-33
2023/10/01 07:52:24;;;;;;;17.95;14.07;;;15.00;99.90;;;;;;4939611;28;90402;-33
2023/10/01 07:54:50;;;;;;;20.52;12.40;;;15.10;99.90;;;;;;4938473;28;92408;-35
2023/10/01 07:57:28;;;;;;;17.20;13.10;;;15.20;99.90;;;;;;4937768;28;90308;-33
2023/10/01 08:00:25;;;;;;;17.30;11.85;;;15.20;99.90;;;;;;4949417;28;88209;-33
2023/10/01 08:05:38;;;;;;;20.48;12.15;;;15.30;99.90;;;;;;4937138;28;89370;-34
2023/10/01 08:08:09;;;;;;;17.38;13.35;;;15.30;99.90;;;;;;4936950;28;88591;-33
2023/10/01 08:10:37;;;;;;;19.42;12.10;;;15.40;99.90;;;;;;4937061;28;89008;-34
2023/10/01 08:13:06;;;;;;;;;;;15.40;99.90;;;;;;4946340;28;88637;-35
2023/10/01 08:15:39;;;;;;;17.13;11.55;;;15.50;99.90;;;;;;4941339;28;89669;-35
2023/10/01 08:20:58;;;;;;;17.08;11.75;;;15.60;99.90;;;;;;4926310;28;90468;-33
2023/10/01 08:23:28;;;;;;;22.17;12.82;;;15.60;99.90;;;;;;4931172;28;91343;-35
2023/10/01 08:25:56;;;;;;;15.85;12.23;;;15.60;99.90;;;;;;4935743;28;89965;-34
2023/10/01 08:30:49;;;;;;;17.60;11.40;;;15.60;99.90;;;;;;4936709;28;89300;-35
2023/10/01 08:33:18;;;;;;;16.55;12.05;;;15.60;99.90;;;;;;4930035;28;89911;-33
2023/10/01 08:36:01;;;;;;;20.63;12.88;;;15.60;99.90;;;;;;4928269;28;89807;-32
2023/10/01 08:38:34;;;;;;;16.38;11.70;;;15.70;99.90;;;;;;4944716;28;89075;-34
2023/10/01 08:41:02;;;;;;;16.10;11.60;;;15.70;99.90;;;;;;4936296;28;88954;-33
2023/10/01 08:43:31;;;;;;;;;;;15.80;99.90;;;;;;4949537;28;89033;-32
2023/10/01 08:46:08;;;;;;;18.63;11.70;;;15.80;99.90;;;;;;4924372;28;90996;-37
2023/10/01 08:48:36;;;;;;;22.58;13.00;;;15.80;99.90;;;;;;4924549;28;90949;-36
2023/10/01 08:51:11;;;;;;;18.42;11.48;;;15.90;99.90;;;;;;4923914;28;89846;-35
2023/10/01 08:53:41;;;;;;;22.02;11.52;;;15.90;99.90;;;;;;4935206;28;90065;-33
2023/10/01 08:56:13;;;;;;;15.43;10.55;;;15.90;99.90;;;;;;4936303;28;89763;-33
2023/10/01 08:58:48;;;;;;;15.20;10.95;;;15.90;99.90;;;;;;4936356;28;88917;-34
2023/10/01 09:01:19;;;;;;;19.40;11.13;;;16.00;99.90;;;;;;4935392;28;89035;-36
2023/10/01 09:03:49;;;;;;;15.57;10.77;;;16.10;99.90;;;;;;4936147;28;89889;-37
2023/10/01 09:06:24;;;;;;;14.25;11.57;;;16.20;99.90;;;;;;4935767;28;89140;-34
2023/10/01 09:08:54;;;;;;;17.35;10.35;;;16.30;99.90;;;;;;4936818;28;91025;-33
2023/10/01 09:11:47;;;;;;;16.63;9.55;;;16.40;99.90;;;;;;4946064;28;88878;-34
2023/10/01 09:14:20;;;;;;;23.23;11.75;;;16.40;99.90;;;;;;4936756;28;90136;-34
2023/10/01 09:16:57;;;;;;;15.40;9.40;;;16.50;99.90;;;;;;4935413;28;89842;-34
2023/10/01 09:19:31;;;;;;;16.92;10.68;;;16.60;99.90;;;;;;4935688;28;90209;-33
2023/10/01 09:22:07;;;;;;;13.73;10.30;;;16.60;99.90;;;;;;4921133;28;89481;-33
2023/10/01 09:24:39;;;;;;;15.13;10.60;;;16.70;99.90;;;;;;4935742;28;91420;-34
2023/10/01 09:27:11;;;;;;;12.48;10.25;;;16.90;99.90;;;;;;4934637;28;90814;-36
2023/10/01 09:29:43;;;;;;;14.13;10.20;;;17.00;99.90;;;;;;4936791;28;89783;-32
2023/10/01 09:32:11;;;;;;;17.90;10.68;;;17.20;99.90;;;;;;4934768;28;89928;-33
2023/10/01 09:34:46;;;;;;;16.00;11.07;;;17.30;99.90;;;;;;4937640;28;90045;-34
2023/10/01 09:37:34;;;;;;;15.35;9.70;;;17.50;99.90;;;;;;4946100;28;90510;-31
2023/10/01 09:40:32;;;;;;;16.75;9.38;;;17.60;99.90;;;;;;4938621;28;90925;-34
2023/10/01 09:43:03;;;;;;;19.13;10.63;;;17.80;99.90;;;;;;4931716;28;89381;-33
2023/10/01 09:45:39;;;;;;;13.43;9.93;;;17.90;99.90;;;;;;4937630;28;92364;-32
2023/10/01 09:48:09;;;;;;;18.05;9.43;;;17.90;99.90;;;;;;4955209;28;90257;-35
2023/10/01 09:50:39;;;;;;;14.77;9.52;;;17.90;99.90;;;;;;4948821;28;89970;-34
2023/10/01 09:53:15;;;;;;;15.05;10.65;;;17.90;99.90;;;;;;4950022;28;89749;-33
2023/10/01 09:55:47;;;;;;;18.42;9.60;;;17.90;99.90;;;;;;4929942;28;89426;-35
2023/10/01 09:58:29;;;;;;;14.20;8.88;;;18.00;99.90;;;;;;4927004;28;89398;-31
2023/10/01 10:01:08;;;;;;;14.75;10.70;;;18.20;99.90;;;;;;4941731;28;89449;-34
2023/10/01 10:03:37;;;;;;;15.38;9.93;;;18.20;99.90;;;;;;4946565;28;88693;-33
2023/10/01 10:06:07;;;;;;;15.07;9.23;;;18.30;99.90;;;;;;4938855;28;89102;-33
2023/10/01 10:08:34;;;;;;;11.95;9.13;;;18.40;99.90;;;;;;4938217;28;88833;-35
2023/10/01 10:11:06;;;;;;;12.70;8.30;;;18.50;99.90;;;;;;4939253;28;89154;-36
2023/10/01 10:13:36;;;;;;;15.40;10.27;;;18.50;99.90;;;;;;4939120;28;88110;-33
2023/10/01 10:16:29;;;;;;;15.45;7.93;;;18.40;99.90;;;;;;4942075;28;90161;-35
2023/10/01 10:19:13;;;;;;;20.08;9.75;;;18.50;99.90;;;;;;4939889;28;90550;-31
2023/10/01 10:24:33;;;;;;;16.67;10.13;;;18.40;99.90;;;;;;4941118;28;89447;-32
2023/10/01 10:27:09;;;;;;;13.95;8.85;;;18.40;99.90;;;;;;4938012;28;90260;-32
2023/10/01 10:29:47;;;;;;;16.25;9.35;;;18.50;99.90;;;;;;4930700;28;90678;-34
2023/10/01 10:32:13;;;;;;;13.30;8.93;;;18.50;99.90;;;;;;4933991;28;90793;-35
2023/10/01 10:35:03;;;;;;;15.65;9.65;;;18.50;99.90;;;;;;4935656;28;89608;-32
2023/10/01 10:37:35;;;;;;;14.18;8.52;;;18.60;99.90;;;;;;4939573;28;90620;-34
2023/10/01 10:40:12;;;;;;;24.60;10.88;;;18.70;99.90;;;;;;4947541;28;88357;-33
2023/10/01 10:42:42;;;;;;;15.07;9.40;;;18.80;99.90;;;;;;4937311;28;90225;-33
2023/10/01 10:45:19;;;;;;;15.73;10.05;;;18.90;99.90;;;;;;4938120;28;87978;-34
2023/10/01 10:48:03;;;;;;;17.20;9.05;;;18.90;99.90;;;;;;4951609;28;90288;-35
2023/10/01 10:50:49;;;;;;;17.73;9.40;;;19.00;99.90;;;;;;4938031;28;89297;-34
2023/10/01 10:53:20;;;;;;;12.77;10.02;;;19.20;99.90;;;;;;4937476;28;90145;-33
2023/10/01 10:56:02;;;;;;;12.75;9.05;;;19.20;99.90;;;;;;4937756;28;89389;-32
2023/10/01 10:58:44;;;;;;;17.92;10.27;;;19.30;99.90;;;;;;4938412;28;89182;-34
2023/10/01 11:01:20;;;;;;;19.05;8.95;;;19.30;99.90;;;;;;4936619;28;89762;-35
2023/10/01 11:03:57;;;;;;;18.25;9.57;;;19.40;99.90;;;;;;4938951;28;89222;-37
2023/10/01 11:06:24;;;;;;;13.55;10.00;;;19.20;99.90;;;;;;4933005;28;89335;-35
2023/10/01 11:08:50;;;;;;;12.35;8.45;;;19.30;99.90;;;;;;4937227;28;90272;-34
2023/10/01 11:11:23;;;;;;;17.15;8.02;;;19.30;99.90;;;;;;4937579;28;89469;-36
2023/10/01 11:13:59;;;;;;;12.90;9.13;;;19.40;99.90;;;;;;4938736;28;89569;-34
2023/10/01 11:16:39;;;;;;;14.75;8.85;;;19.50;99.90;;;;;;4938407;28;89101;-33
2023/10/01 11:19:12;;;;;;;12.20;8.15;;;19.60;99.90;;;;;;4947290;28;90128;-34
2023/10/01 11:21:59;;;;;;;14.70;9.02;;;19.60;99.90;;;;;;4941442;28;90813;-36
2023/10/01 11:24:34;;;;;;;14.35;8.52;;;19.60;99.90;;;;;;4943677;28;90311;-33
2023/10/01 11:27:25;;;;;;;14.05;8.57;;;19.70;99.90;;;;;;4939622;28;88172;-32
2023/10/01 11:30:12;;;;;;;13.98;8.65;;;19.70;99.90;;;;;;4941532;28;89726;-34
2023/10/01 11:35:34;;;;;;;13.32;9.30;;;19.70;99.90;;;;;;4938414;28;88965;-33
2023/10/01 11:38:14;;;;;;;18.63;8.73;;;19.80;99.90;;;;;;4944910;28;89638;-35
2023/10/01 11:43:27;;;;;;;12.40;8.70;;;20.00;99.90;;;;;;4931071;28;90256;-35
2023/10/01 11:46:19;;;;;;;15.35;7.60;;;20.10;99.90;;;;;;4937086;28;89066;-34
2023/10/01 11:49:06;;;;;;;15.15;8.10;;;20.10;99.90;;;;;;4937871;28;90769;-33
2023/10/01 11:51:48;;;;;;;16.52;8.48;;;20.10;99.90;;;;;;4937508;28;90003;-32
2023/10/01 11:54:43;;;;;;;16.23;8.30;;;20.20;99.90;;;;;;4936043;28;89378;-33
2023/10/01 11:57:22;;;;;;;18.73;10.23;;;20.30;99.90;;;;;;4945764;28;89289;-33
2023/10/01 11:59:56;;;;;;;18.52;8.23;;;20.20;99.90;;;;;;4931314;28;88670;-34
2023/10/01 12:02:33;;;;;;;16.23;9.18;;;20.30;99.90;;;;;;4941170;28;90730;-32
2023/10/01 12:05:03;;;;;;;19.00;8.80;;;20.40;99.90;;;;;;4936723;28;89311;-36
2023/10/01 12:07:39;;;;;;;13.02;7.82;;;20.40;99.90;;;;;;4936404;28;89574;-34
2023/10/01 12:10:07;;;;;;;16.50;8.23;;;20.50;99.90;;;;;;4936287;28;89174;-35
2023/10/01 12:12:37;;;;;;;17.98;9.40;;;20.50;99.90;;;;;;4940891;28;89760;-36
2023/10/01 12:17:48;;;;;;;15.13;7.93;;;20.60;99.90;;;;;;4936501;28;90092;-35
2023/10/01 12:20:23;;;;;;;11.98;8.85;;;20.70;99.90;;;;;;4937054;28;88651;-35
2023/10/01 12:23:11;;;;;;;14.70;8.15;;;20.80;99.90;;;;;;4936551;28;90435;-35
2023/10/01 12:25:50;;;;;;;12.95;8.23;;;20.80;99.90;;;;;;4937080;28;89882;-34
2023/10/01 12:28:29;;;;;;;11.10;7.85;;;20.90;99.90;;;;;;4933493;28;89493;-33
2023/10/01 12:31:02;;;;;;;14.55;9.15;;;20.90;99.90;;;;;;4936676;28;88618;-34
2023/10/01 12:33:45;;;;;;;12.27;7.45;;;20.90;99.90;;;;;;4936343;28;92795;-34
2023/10/01 12:39:16;;;;;;;14.60;7.30;;;21.00;99.90;;;;;;4946490;28;89523;-33
2023/10/01 12:44:30;;;;;;;12.57;7.65;;;21.00;99.90;;;;;;4936495;28;90586;-35
2023/10/01 12:47:08;;;;;;;11.93;6.87;;;21.00;99.90;;;;;;4943928;28;90164;-33
2023/10/01 12:49:34;;;;;;;;;;;21.00;99.90;;;;;;4956348;28;89532;-32
2023/10/01 12:52:04;;;;;;;14.00;7.88;;;21.10;99.90;;;;;;4947427;28;89018;-35
2023/10/01 12:54:36;;;;;;;13.10;7.97;;;21.10;99.90;;;;;;4936490;28;90029;-33
2023/10/01 12:57:22;;;;;;;14.75;8.15;;;21.20;99.90;;;;;;4937162;28;89831;-33
2023/10/01 13:02:43;;;;;;;11.98;7.68;;;21.30;99.90;;;;;;4940196;28;89272;-35
2023/10/01 13:05:27;;;;;;;11.32;6.88;;;21.20;99.90;;;;;;4939363;28;91216;-33
2023/10/01 13:07:57;;;;;;;14.43;7.28;;;21.40;99.90;;;;;;4945003;28;90215;-35
2023/10/01 13:10:35;;;;;;;13.38;7.38;;;21.40;99.90;;;;;;4944378;28;90011;-35
2023/10/01 13:13:05;;;;;;;14.23;7.72;;;21.50;99.90;;;;;;4941279;28;89306;-35
2023/10/01 13:15:33;;;;;;;11.88;7.13;;;21.50;99.90;;;;;;4942358;28;90350;-35
2023/10/01 13:18:00;;;;;;;15.65;7.55;;;21.50;99.90;;;;;;4935591;28;89482;-34
2023/10/01 13:20:28;;;;;;;9.07;7.35;;;21.70;99.90;;;;;;4943284;28;88493;-34
2023/10/01 13:23:07;;;;;;;10.88;7.75;;;21.70;99.90;;;;;;4942279;28;88974;-35
2023/10/01 13:25:36;;;;;;;11.13;7.18;;;21.70;99.90;;;;;;4936394;28;88932;-35
2023/10/01 13:28:04;;;;;;;12.95;6.82;;;21.80;99.90;;;;;;4937385;28;89735;-35
2023/10/01 13:31:03;;;;;;;13.55;6.00;;;21.90;99.90;;;;;;4942540;28;88740;-32
2023/10/01 13:33:20;;;;;;;11.57;6.75;;;22.00;99.90;;;;;;4947865;28;89017;-33
2023/10/01 13:35:58;;;;;;;10.77;5.97;;;22.00;99.90;;;;;;4942461;28;90666;-37
2023/10/01 13:39:13;;;;;;;9.95;6.25;;;22.00;99.90;;;;;;4947249;28;89670;-35
2023/10/01 14:08:45;;;;;;;9.85;6.10;;;22.20;99.90;;;;;;4953878;28;90251;-34
2023/10/01 14:11:12;;;;;;;9.80;5.75;;;22.10;99.90;;;;;;4942529;28;90263;-35